createdAt,value
2018-07-10T00:00:47.558Z,8.40
2018-07-10T00:03:26.519Z,3.57
2018-07-10T00:08:09.542Z,2.13
2018-07-10T00:11:41.131Z,5.53
2018-07-10T00:14:08.960Z,2.83
2018-07-10T00:16:36.762Z,2.30
2018-07-10T00:19:04.491Z,1.60
2018-07-10T00:21:32.624Z,3.67
2018-07-10T00:24:00.652Z,5.23
2018-07-10T00:26:28.607Z,3.30
2018-07-10T00:28:56.611Z,3.70
2018-07-10T00:31:24.599Z,3.83
2018-07-10T00:33:52.961Z,2.40
2018-07-10T00:36:20.634Z,2.87
2018-07-10T00:39:01.748Z,5.07
2018-07-10T00:41:32.055Z,2.10
2018-07-10T00:44:00.813Z,2.17
2018-07-10T00:46:30.796Z,4.27
2018-07-10T00:48:58.698Z,3.90
2018-07-10T00:51:27.527Z,5.20
2018-07-10T00:53:55.387Z,4.37
2018-07-10T00:56:23.291Z,4.13
2018-07-10T00:58:52.755Z,8.47
2018-07-10T01:01:21.459Z,3.23
2018-07-10T01:03:49.520Z,5.90
2018-07-10T01:06:17.371Z,1.80
2018-07-10T01:08:45.547Z,3.90
2018-07-10T01:11:14.571Z,1.50
2018-07-10T01:13:43.455Z,4.03
2018-07-10T01:16:11.520Z,3.60
2018-07-10T01:18:41.671Z,2.63
2018-07-10T01:21:17.588Z,3.33
2018-07-10T01:23:47.683Z,2.63
2018-07-10T01:26:15.567Z,1.87
2018-07-10T01:28:43.411Z,5.40
2018-07-10T01:31:11.303Z,5.47
2018-07-10T01:33:39.191Z,5.07
2018-07-10T01:36:07.561Z,1.80
2018-07-10T01:38:35.943Z,1.67
2018-07-10T01:41:04.192Z,1.93
2018-07-10T01:43:32.215Z,2.80
2018-07-10T01:46:00.043Z,4.33
2018-07-10T01:48:27.873Z,7.63
2018-07-10T01:50:55.715Z,1.43
2018-07-10T01:53:23.868Z,2.70
2018-07-10T01:55:51.959Z,3.93
2018-07-10T01:58:20.413Z,2.83
2018-07-10T02:00:48.308Z,7.77
2018-07-10T02:03:16.155Z,3.97
2018-07-10T02:05:43.950Z,4.50
2018-07-10T02:08:11.843Z,2.77
2018-07-10T02:10:39.684Z,2.80
2018-07-10T02:13:07.531Z,3.33
2018-07-10T02:15:35.389Z,5.70
2018-07-10T02:18:03.312Z,7.00
2018-07-10T02:21:04.285Z,2.43
2018-07-10T02:23:37.103Z,6.03
2018-07-10T02:26:06.307Z,3.13
2018-07-10T02:28:34.207Z,4.03
2018-07-10T02:31:02.416Z,2.77
2018-07-10T02:33:30.492Z,2.53
2018-07-10T02:35:58.368Z,2.50
2018-07-10T02:38:26.803Z,4.70
2018-07-10T02:40:55.544Z,2.90
2018-07-10T02:43:23.600Z,3.63
2018-07-10T02:45:51.572Z,2.13
2018-07-10T02:48:19.473Z,3.73
2018-07-10T02:50:50.399Z,2.33
2018-07-10T02:53:18.707Z,4.50
2018-07-10T02:55:46.600Z,7.07
2018-07-10T02:58:14.527Z,2.80
2018-07-10T03:00:42.468Z,4.60
2018-07-10T03:03:10.320Z,6.83
2018-07-10T03:05:38.183Z,2.03
2018-07-10T03:08:06.036Z,2.60
2018-07-10T03:10:33.929Z,4.80
2018-07-10T03:13:01.780Z,3.60
2018-07-10T03:15:29.636Z,3.70
2018-07-10T03:17:57.536Z,3.03
2018-07-10T03:20:25.555Z,2.70
2018-07-10T03:22:53.387Z,1.93
2018-07-10T03:25:21.214Z,4.37
2018-07-10T03:27:49.099Z,2.60
2018-07-10T03:30:16.913Z,1.80
2018-07-10T03:32:44.762Z,6.60
2018-07-10T03:35:12.618Z,1.27
2018-07-10T03:37:40.488Z,2.00
2018-07-10T03:40:08.408Z,1.57
2018-07-10T03:42:36.323Z,1.27
2018-07-10T03:45:04.194Z,2.60
2018-07-10T03:47:32.088Z,1.10
2018-07-10T03:49:59.947Z,3.60
2018-07-10T03:52:30.733Z,3.10
2018-07-10T03:54:59.491Z,2.00
2018-07-10T03:57:27.469Z,2.83
2018-07-10T03:59:57.913Z,2.63
2018-07-10T04:02:25.850Z,2.63
2018-07-10T04:04:54.167Z,4.00
2018-07-10T04:07:22.535Z,4.20
2018-07-10T04:09:52.485Z,2.30
2018-07-10T04:12:20.363Z,2.97
2018-07-10T04:14:48.254Z,4.60
2018-07-10T04:17:16.146Z,3.63
2018-07-10T04:19:44.189Z,2.43
2018-07-10T04:22:14.367Z,7.67
2018-07-10T04:24:42.227Z,8.73
2018-07-10T04:27:19.227Z,2.50
2018-07-10T04:29:57.188Z,2.50
2018-07-10T04:32:25.060Z,2.60
2018-07-10T04:34:52.941Z,2.03
2018-07-10T04:37:20.879Z,1.10
2018-07-10T04:39:48.761Z,4.43
2018-07-10T04:42:20.143Z,6.17
2018-07-10T04:44:55.491Z,3.90
2018-07-10T04:47:28.117Z,8.23
2018-07-10T04:49:58.036Z,6.67
2018-07-10T04:52:29.181Z,3.97
2018-07-10T04:55:07.472Z,1.50
2018-07-10T04:57:36.511Z,1.73
2018-07-10T05:00:05.352Z,3.63
2018-07-10T05:02:34.104Z,4.40
2018-07-10T05:05:02.358Z,3.17
2018-07-10T05:07:30.250Z,4.43
2018-07-10T05:09:58.199Z,2.20
2018-07-10T05:12:26.051Z,1.57
2018-07-10T05:14:55.320Z,3.90
2018-07-10T05:17:23.158Z,1.73
2018-07-10T05:19:51.086Z,1.37
2018-07-10T05:22:18.955Z,1.70
2018-07-10T05:24:46.816Z,1.37
2018-07-10T05:27:15.381Z,2.53
2018-07-10T05:29:43.680Z,1.10
2018-07-10T05:32:12.370Z,3.87
2018-07-10T05:34:40.684Z,2.03
2018-07-10T05:37:10.095Z,2.07
2018-07-10T05:39:42.930Z,6.43
2018-07-10T05:42:10.994Z,2.17
2018-07-10T05:44:38.876Z,2.40
2018-07-10T05:47:06.760Z,3.63
2018-07-10T05:49:38.400Z,1.30
2018-07-10T05:52:06.405Z,3.53
2018-07-10T05:54:36.668Z,1.37
2018-07-10T05:57:04.884Z,2.17
2018-07-10T05:59:32.779Z,3.83
2018-07-10T06:02:00.648Z,2.07
2018-07-10T06:04:28.618Z,2.03
2018-07-10T06:06:56.467Z,1.30
2018-07-10T06:09:24.259Z,5.40
2018-07-10T06:11:52.115Z,4.23
2018-07-10T06:14:19.987Z,3.30
2018-07-10T06:16:50.430Z,6.87
2018-07-10T06:19:18.316Z,1.93
2018-07-10T06:21:48.799Z,2.03
2018-07-10T06:24:22.675Z,2.60
2018-07-10T06:27:01.873Z,3.57
2018-07-10T06:29:34.343Z,3.17
2018-07-10T06:32:02.172Z,3.10
2018-07-10T06:34:35.425Z,3.20
2018-07-10T06:37:04.639Z,1.77
2018-07-10T06:39:32.366Z,4.50
2018-07-10T06:42:08.572Z,4.33
2018-07-10T06:44:37.049Z,1.10
2018-07-10T06:47:15.036Z,2.47
2018-07-10T06:49:42.679Z,4.93
2018-07-10T06:52:14.695Z,2.93
2018-07-10T06:55:19.191Z,6.17
2018-07-10T06:57:49.175Z,2.30
2018-07-10T07:00:16.969Z,2.23
2018-07-10T07:02:44.815Z,3.73
2018-07-10T07:05:12.579Z,3.73
2018-07-10T07:07:40.961Z,2.67
2018-07-10T07:10:15.159Z,1.93
2018-07-10T07:12:44.024Z,1.63
2018-07-10T07:15:18.215Z,2.60
2018-07-10T07:17:50.116Z,1.50
2018-07-10T07:20:19.162Z,1.77
2018-07-10T07:22:47.172Z,2.90
2018-07-10T07:25:14.939Z,2.03
2018-07-10T07:27:42.787Z,2.60
2018-07-10T07:30:10.593Z,1.20
2018-07-10T07:32:38.440Z,4.33
2018-07-10T07:35:06.340Z,3.10
2018-07-10T07:37:36.805Z,0.97
2018-07-10T07:40:04.782Z,6.00
2018-07-10T07:42:32.616Z,3.10
2018-07-10T07:45:00.528Z,1.93
2018-07-10T07:47:29.402Z,3.23
2018-07-10T07:49:57.260Z,8.07
2018-07-10T07:52:27.304Z,2.03
2018-07-10T07:54:55.870Z,5.53
2018-07-10T07:57:24.313Z,5.00
2018-07-10T07:59:52.374Z,2.53
2018-07-10T08:02:21.266Z,3.90
2018-07-10T08:04:49.539Z,7.10
2018-07-10T08:07:17.673Z,2.53
2018-07-10T08:09:45.493Z,1.63
2018-07-10T08:12:13.996Z,3.13
2018-07-10T08:14:42.144Z,2.90
2018-07-10T08:17:10.075Z,4.40
2018-07-10T08:19:37.886Z,1.87
2018-07-10T08:22:06.215Z,2.87
2018-07-10T08:24:35.092Z,5.20
2018-07-10T08:27:03.514Z,5.00
2018-07-10T08:29:31.517Z,2.20
2018-07-10T08:31:59.514Z,2.90
2018-07-10T08:34:27.438Z,1.17
2018-07-10T08:36:55.455Z,3.00
2018-07-10T08:39:23.302Z,2.47
2018-07-10T08:41:51.418Z,3.07
2018-07-10T08:44:20.127Z,1.97
2018-07-10T08:46:52.171Z,1.77
2018-07-10T08:49:20.339Z,2.57
2018-07-10T08:51:49.003Z,2.77
2018-07-10T08:54:17.487Z,6.80
2018-07-10T08:56:45.339Z,2.30
2018-07-10T08:59:13.215Z,4.90
2018-07-10T09:01:41.065Z,4.20
2018-07-10T09:04:08.752Z,7.03
2018-07-10T09:06:36.579Z,3.17
2018-07-10T09:09:05.060Z,3.47
2018-07-10T09:11:32.914Z,3.23
2018-07-10T09:14:00.841Z,2.87
2018-07-10T09:16:28.422Z,14.70
2018-07-10T09:18:56.348Z,6.20
2018-07-10T09:21:24.268Z,2.27
2018-07-10T09:23:52.099Z,3.20
2018-07-10T09:26:20.391Z,3.10
2018-07-10T09:28:48.671Z,3.53
2018-07-10T09:31:16.840Z,4.80
2018-07-10T09:33:44.945Z,1.40
2018-07-10T09:36:12.825Z,1.93
2018-07-10T09:38:40.807Z,6.47
2018-07-10T09:41:08.618Z,4.60
2018-07-10T09:43:37.131Z,1.80
2018-07-10T09:46:05.431Z,4.23
2018-07-10T09:48:33.234Z,5.33
2018-07-10T09:51:01.090Z,5.37
2018-07-10T09:53:28.959Z,1.33
2018-07-10T09:55:57.139Z,2.80
2018-07-10T09:58:25.236Z,2.63
2018-07-10T10:01:00.296Z,4.97
2018-07-10T10:03:27.978Z,2.50
2018-07-10T10:05:56.387Z,3.10
2018-07-10T10:08:24.288Z,2.90
2018-07-10T10:10:52.047Z,3.43
2018-07-10T10:13:19.862Z,1.37
2018-07-10T10:15:47.695Z,2.37
2018-07-10T10:18:15.501Z,2.07
2018-07-10T10:20:43.168Z,3.17
2018-07-10T10:23:11.947Z,3.90
2018-07-10T10:25:41.410Z,1.43
2018-07-10T10:28:09.998Z,2.97
2018-07-10T10:30:38.926Z,2.30
2018-07-10T10:33:07.206Z,1.20
2018-07-10T10:35:34.876Z,2.40
2018-07-10T10:38:03.723Z,1.53
2018-07-10T10:40:33.375Z,7.40
2018-07-10T10:43:04.819Z,2.50
2018-07-10T10:45:35.052Z,2.70
2018-07-10T10:48:03.087Z,5.43
2018-07-10T10:50:30.883Z,2.63
2018-07-10T10:52:59.232Z,3.67
2018-07-10T10:55:27.008Z,1.80
2018-07-10T10:57:55.294Z,2.80
2018-07-10T11:00:23.083Z,2.70
2018-07-10T11:02:51.215Z,4.80
2018-07-10T11:05:19.054Z,2.47
2018-07-10T11:07:46.941Z,3.07
2018-07-10T11:10:15.040Z,2.87
2018-07-10T11:12:42.957Z,3.57
2018-07-10T11:15:10.926Z,1.63
2018-07-10T11:17:50.605Z,3.57
2018-07-10T11:20:29.844Z,3.47
2018-07-10T11:23:03.911Z,3.93
2018-07-10T11:25:38.999Z,5.90
2018-07-10T11:28:08.661Z,9.57
2018-07-10T11:30:36.975Z,1.63
2018-07-10T11:33:05.931Z,9.90
2018-07-10T11:35:34.519Z,11.77
2018-07-10T11:38:08.092Z,3.17
2018-07-10T11:40:37.076Z,1.73
2018-07-10T11:43:07.032Z,1.90
2018-07-10T11:45:35.034Z,1.27
2018-07-10T11:48:02.960Z,1.20
2018-07-10T11:50:30.872Z,3.23
2018-07-10T11:52:58.525Z,2.30
2018-07-10T11:55:26.373Z,1.40
2018-07-10T11:57:54.307Z,4.10
2018-07-10T12:00:22.397Z,3.00
2018-07-10T12:02:50.532Z,4.33
2018-07-10T12:05:19.543Z,1.73
2018-07-10T12:08:04.213Z,2.10
2018-07-10T12:10:33.438Z,2.57
2018-07-10T12:13:01.272Z,3.57
2018-07-10T12:15:29.320Z,2.20
2018-07-10T12:17:58.078Z,3.80
2018-07-10T12:20:34.284Z,3.33
2018-07-10T12:23:04.648Z,5.20
2018-07-10T12:25:41.611Z,6.40
2018-07-10T12:28:10.680Z,4.80
2018-07-10T12:30:39.056Z,5.70
2018-07-10T12:33:07.343Z,4.13
2018-07-10T12:35:35.297Z,3.00
2018-07-10T12:38:03.268Z,3.73
2018-07-10T12:40:31.592Z,5.80
2018-07-10T12:42:59.479Z,2.70
2018-07-10T12:45:27.315Z,3.60
2018-07-10T12:47:55.298Z,13.43
2018-07-10T12:50:23.163Z,2.37
2018-07-10T12:52:51.011Z,4.40
2018-07-10T12:55:20.145Z,5.13
2018-07-10T12:57:48.503Z,4.47
2018-07-10T13:00:16.331Z,16.83
2018-07-10T13:02:47.197Z,6.87
2018-07-10T13:05:15.731Z,6.07
2018-07-10T13:07:43.595Z,5.53
2018-07-10T13:10:11.509Z,3.60
2018-07-10T13:12:39.393Z,6.83
2018-07-10T13:15:07.567Z,5.43
2018-07-10T13:17:38.555Z,6.20
2018-07-10T13:20:06.444Z,5.27
2018-07-10T13:22:34.295Z,7.50
2018-07-10T13:25:02.181Z,7.43
2018-07-10T13:27:29.984Z,6.53
2018-07-10T13:29:57.764Z,10.90
2018-07-10T13:32:25.655Z,11.70
2018-07-10T13:34:53.515Z,8.00
2018-07-10T13:37:23.526Z,10.90
2018-07-10T13:39:51.484Z,8.73
2018-07-10T13:42:19.671Z,7.60
2018-07-10T13:44:47.643Z,6.53
2018-07-10T13:47:15.320Z,9.70
2018-07-10T13:49:43.236Z,13.10
2018-07-10T13:52:11.371Z,8.00
2018-07-10T13:54:39.552Z,13.80
2018-07-10T13:57:07.389Z,8.80
2018-07-10T13:59:35.092Z,7.23
2018-07-10T14:02:02.957Z,8.60
2018-07-10T14:04:30.824Z,5.90
2018-07-10T14:06:58.698Z,10.07
2018-07-10T14:09:26.543Z,4.80
2018-07-10T14:11:54.348Z,6.40
2018-07-10T14:14:22.288Z,6.73
2018-07-10T14:16:50.182Z,12.83
2018-07-10T14:19:18.015Z,5.30
2018-07-10T14:21:46.025Z,10.00
2018-07-10T14:24:20.309Z,5.33
2018-07-10T14:26:50.328Z,6.17
2018-07-10T14:29:18.534Z,5.77
2018-07-10T14:31:46.344Z,9.30
2018-07-10T14:36:48.510Z,14.70
2018-07-10T14:39:16.379Z,5.77
2018-07-10T14:41:44.084Z,10.93
2018-07-10T14:44:12.451Z,9.53
2018-07-10T14:46:40.468Z,4.87
2018-07-10T14:49:08.748Z,5.90
2018-07-10T14:51:46.129Z,6.33
2018-07-10T14:54:14.231Z,11.40
2018-07-10T14:56:42.836Z,6.23
2018-07-10T14:59:10.922Z,7.10
2018-07-10T15:01:39.745Z,7.90
2018-07-10T15:04:07.897Z,7.63
2018-07-10T15:06:35.806Z,10.17
2018-07-10T15:09:05.251Z,13.90
2018-07-10T15:11:33.059Z,8.80
2018-07-10T15:14:03.852Z,11.20
2018-07-10T15:16:37.447Z,8.30
2018-07-10T15:19:05.384Z,4.60
2018-07-10T15:21:33.313Z,7.27
2018-07-10T15:24:02.619Z,10.17
2018-07-10T15:26:30.923Z,9.77
2018-07-10T15:28:58.801Z,7.13
2018-07-10T15:31:27.211Z,7.23
2018-07-10T15:33:55.103Z,7.00
2018-07-10T15:36:22.987Z,7.03
2018-07-10T15:38:51.227Z,5.50
2018-07-10T15:41:19.625Z,8.33
2018-07-10T15:43:47.700Z,7.83
2018-07-10T15:46:15.662Z,8.83
2018-07-10T15:48:43.520Z,5.53
2018-07-10T15:51:11.466Z,6.80
2018-07-10T15:53:39.289Z,6.57
2018-07-10T15:56:07.051Z,11.33
2018-07-10T15:58:35.662Z,7.60
2018-07-10T16:01:03.756Z,8.10
2018-07-10T16:03:31.423Z,9.00
2018-07-10T16:05:59.891Z,9.10
2018-07-10T16:08:27.858Z,10.97
2018-07-10T16:11:01.803Z,8.53
2018-07-10T16:13:31.940Z,13.63
2018-07-10T16:16:00.068Z,12.40
2018-07-10T16:18:29.078Z,11.03
2018-07-10T16:20:59.810Z,10.73
2018-07-10T16:23:27.912Z,12.03
2018-07-10T16:25:59.871Z,6.63
2018-07-10T16:28:27.703Z,9.90
2018-07-10T16:30:55.761Z,6.90
2018-07-10T16:33:30.223Z,8.00
2018-07-10T16:35:58.452Z,7.30
2018-07-10T16:38:29.394Z,12.60
2018-07-10T16:41:02.907Z,10.97
2018-07-10T16:43:30.837Z,8.53
2018-07-10T16:46:00.293Z,8.60
2018-07-10T16:48:50.951Z,11.03
2018-07-10T16:51:23.845Z,8.83
2018-07-10T16:53:57.530Z,7.80
2018-07-10T16:56:25.448Z,9.37
2018-07-10T16:58:54.493Z,16.60
2018-07-10T17:01:23.536Z,9.30
2018-07-10T17:03:51.267Z,7.53
2018-07-10T17:06:20.095Z,10.57
2018-07-10T17:08:48.000Z,7.50
2018-07-10T17:11:16.091Z,7.27
2018-07-10T17:13:43.970Z,15.33
2018-07-10T17:16:11.838Z,20.83
2018-07-10T17:18:39.700Z,10.20
2018-07-10T17:21:07.671Z,10.03
2018-07-10T17:23:35.562Z,12.77
2018-07-10T17:26:04.308Z,10.07
2018-07-10T17:28:32.155Z,8.67
2018-07-10T17:31:00.093Z,10.23
2018-07-10T17:33:27.962Z,14.87
2018-07-10T17:35:55.829Z,13.27
2018-07-10T17:38:23.795Z,16.23
2018-07-10T17:40:52.249Z,12.87
2018-07-10T17:43:20.353Z,16.47
2018-07-10T17:45:48.519Z,15.37
2018-07-10T17:48:16.430Z,13.83
2018-07-10T17:50:44.307Z,11.90
2018-07-10T17:53:12.051Z,10.73
2018-07-10T17:55:40.003Z,19.00
2018-07-10T17:58:08.108Z,11.50
2018-07-10T18:00:36.005Z,16.10
2018-07-10T18:03:03.865Z,12.70
2018-07-10T18:05:32.057Z,17.43
2018-07-10T18:08:00.053Z,14.87
2018-07-10T18:10:27.978Z,16.17
2018-07-10T18:12:56.107Z,15.20
2018-07-10T18:15:24.199Z,13.17
2018-07-10T18:17:52.752Z,17.13
2018-07-10T18:20:20.676Z,15.43
2018-07-10T18:22:48.674Z,9.63
2018-07-10T18:25:16.468Z,11.60
2018-07-10T18:27:44.327Z,11.07
2018-07-10T18:30:12.253Z,14.20
2018-07-10T18:32:40.148Z,10.90
2018-07-10T18:35:08.032Z,9.73
2018-07-10T18:37:35.899Z,13.00
2018-07-10T18:40:03.730Z,15.27
2018-07-10T18:42:31.484Z,15.43
2018-07-10T18:44:59.308Z,13.60
2018-07-10T18:47:27.162Z,18.83
2018-07-10T18:49:56.146Z,16.00
2018-07-10T18:52:26.598Z,13.47
2018-07-10T18:54:55.995Z,17.97
2018-07-10T18:57:52.560Z,10.57
2018-07-10T19:00:26.207Z,14.67
2018-07-10T19:03:03.319Z,18.43
2018-07-10T19:05:31.342Z,19.40
2018-07-10T19:07:59.347Z,22.00
2018-07-10T19:10:27.323Z,13.87
2018-07-10T19:12:55.559Z,11.23
2018-07-10T19:15:23.949Z,10.70
2018-07-10T19:17:51.849Z,11.70
2018-07-10T19:20:19.721Z,14.50
2018-07-10T19:23:55.203Z,10.40
2018-07-10T19:26:24.947Z,12.63
2018-07-10T19:29:04.371Z,10.47
2018-07-10T19:31:32.435Z,16.00
2018-07-10T19:34:00.848Z,10.70
2018-07-10T19:36:28.708Z,12.13
2018-07-10T19:38:56.631Z,17.23
2018-07-10T19:41:24.644Z,12.27
2018-07-10T19:43:52.325Z,11.47
2018-07-10T19:46:20.224Z,9.33
2018-07-10T19:48:49.927Z,8.37
2018-07-10T19:51:20.482Z,9.50
2018-07-10T19:53:53.387Z,12.10
2018-07-10T19:56:21.060Z,9.60
2018-07-10T19:58:48.759Z,11.00
2018-07-10T20:01:27.875Z,7.90
2018-07-10T20:04:01.740Z,6.50
2018-07-10T20:06:32.703Z,7.67
2018-07-10T20:09:03.947Z,5.73
2018-07-10T20:12:09.877Z,11.60
2018-07-10T20:15:45.410Z,8.00
2018-07-10T20:18:38.232Z,7.10
2018-07-10T20:21:16.928Z,6.93
2018-07-10T20:23:50.448Z,9.53
2018-07-10T20:27:22.882Z,7.73
2018-07-10T20:31:11.345Z,6.93
2018-07-10T20:33:48.442Z,13.13
2018-07-10T20:36:20.817Z,17.70
2018-07-10T20:38:49.483Z,7.77
2018-07-10T20:41:19.411Z,14.13
2018-07-10T20:43:50.824Z,6.80
2018-07-10T20:46:18.718Z,6.53
2018-07-10T20:48:58.215Z,5.67
2018-07-10T20:51:31.118Z,10.40
2018-07-10T20:54:17.384Z,4.63
2018-07-10T20:56:53.132Z,4.53
2018-07-10T20:59:23.748Z,5.93
2018-07-10T21:01:52.064Z,6.67
2018-07-10T21:04:31.384Z,5.00
2018-07-10T21:07:03.102Z,6.63
2018-07-10T21:10:40.158Z,5.10
2018-07-10T21:13:11.074Z,6.00
2018-07-10T21:17:53.662Z,5.63
2018-07-10T21:20:29.790Z,6.80
2018-07-10T21:25:16.068Z,7.23
2018-07-10T21:27:54.458Z,6.07
2018-07-10T21:30:27.958Z,5.00
2018-07-10T21:33:01.166Z,3.93
2018-07-10T21:35:35.988Z,3.63
2018-07-10T21:38:14.379Z,3.53
2018-07-10T21:40:48.587Z,3.23
2018-07-10T21:43:23.554Z,6.33
2018-07-10T21:46:07.133Z,5.83
2018-07-10T21:49:24.299Z,6.10
2018-07-10T21:51:52.133Z,4.20
2018-07-10T21:54:19.959Z,3.37
2018-07-10T21:56:47.658Z,2.90
2018-07-10T21:59:18.859Z,7.33
2018-07-10T22:01:50.530Z,2.33
2018-07-10T22:04:21.268Z,2.70
2018-07-10T22:06:51.787Z,2.20
2018-07-10T22:09:19.898Z,2.70
2018-07-10T22:11:48.418Z,3.73
2018-07-10T22:14:17.024Z,2.53
2018-07-10T22:16:45.052Z,1.97
2018-07-10T22:19:12.927Z,2.20
2018-07-10T22:21:41.961Z,2.87
2018-07-10T22:24:09.996Z,1.60
2018-07-10T22:26:38.235Z,3.07
2018-07-10T22:29:06.192Z,2.23
2018-07-10T22:31:39.731Z,2.60
2018-07-10T22:34:07.620Z,3.10
2018-07-10T22:36:35.592Z,3.17
2018-07-10T22:39:04.505Z,2.00
2018-07-10T22:41:32.412Z,1.73
2018-07-10T22:44:01.735Z,1.60
2018-07-10T22:46:30.335Z,2.07
2018-07-10T22:49:02.192Z,3.50
2018-07-10T22:51:30.455Z,1.60
2018-07-10T22:53:59.943Z,1.90
2018-07-10T22:56:28.332Z,3.53
2018-07-10T22:58:56.421Z,3.10
2018-07-10T23:01:24.318Z,2.60
2018-07-10T23:03:52.731Z,2.37
2018-07-10T23:06:20.907Z,2.70
2018-07-10T23:08:49.008Z,2.40
2018-07-10T23:11:16.992Z,2.13
2018-07-10T23:13:46.108Z,4.40
2018-07-10T23:16:14.053Z,2.00
2018-07-10T23:18:43.420Z,2.53
2018-07-10T23:21:13.128Z,1.70
2018-07-10T23:23:41.046Z,2.20
2018-07-10T23:26:09.031Z,3.77
2018-07-10T23:28:38.043Z,2.80
2018-07-10T23:31:05.938Z,2.63
2018-07-10T23:33:34.483Z,1.40
2018-07-10T23:36:04.499Z,1.90
2018-07-10T23:38:47.319Z,1.93
2018-07-10T23:41:22.446Z,2.00
2018-07-10T23:43:50.403Z,3.20
2018-07-10T23:46:24.018Z,1.80
2018-07-10T23:48:54.357Z,2.10
2018-07-10T23:51:22.159Z,1.60
2018-07-10T23:53:52.259Z,1.50
2018-07-10T23:56:20.626Z,2.13
2018-07-10T23:58:48.808Z,6.43
